• Join FlightAware (Why Join?)
  • Login
  • US Flag 
12:54PM EDT


 

Airport Tracker/Info


-or-


 

Live Flight TrackerFlight Track Log ✈ UCA3597 ✈ 07-Dec-2013 ✈ KIAD - KBGM

Flight Track Log - Related Links

Times and Time Zones

All times are in EST time to prevent confusion due to time zone crossing. See the UCA3597 flight status page for this flight to view local times or setup timezone preferences in your user account.

Time Position Orientation Groundspeed Altitude Reporting Facility
EST Latitude Longitude Course Direction KTS MPH feet Rate Location/Type
05:50PM 39.3233 -77.2969 19° North  Level Estimated
05:51PM 39.3769 -77.2735 19° North  Level Estimated
05:52PM 39.4306 -77.2500 19° North  Level Estimated
05:53PM 39.4842 -77.2265 19° North  Level Estimated
05:54PM 39.5379 -77.2030 19° North  Level Estimated
05:55PM 39.5916 -77.1794 19° North  Level Estimated
05:56PM 39.6452 -77.1558 19° North  Level Estimated
05:57PM 39.6988 -77.1321 19° North  Level Estimated
05:58PM 39.7525 -77.1085 19° North  Level Estimated
05:59PM 39.8061 -77.0847 19° North  Level Estimated
06:00PM 39.8597 -77.0610 19° North  Level Estimated
06:01PM 39.9134 -77.0372 19° North  Level Estimated
06:02PM 39.9670 -77.0133 19° North  Level Estimated
06:03PM 40.0206 -76.9895 19° North  Level Estimated
06:04PM 40.0742 -76.9656 19° North  Level Estimated
06:05PM 40.1278 -76.9416 19° North  Level Estimated
06:06PM 40.1814 -76.9176 19° North  Level Estimated
06:07PM 40.2350 -76.8936 19° North  Level Estimated
06:08PM 40.2886 -76.8695 19° North  Level Estimated
06:09PM 40.3422 -76.8454 19° North  Level Estimated
06:10PM 40.3957 -76.8213 19° North  Level Estimated
06:11PM 40.4493 -76.7971 19° North  Level Estimated
06:12PM 40.5029 -76.7729 19° North  Level Estimated
06:13PM 40.5564 -76.7486 19° North  Level Estimated
06:14PM 40.6100 -76.7243 19° North  Level Estimated
06:15PM 40.6636 -76.7000 19° North  Level Estimated
06:16PM 40.7171 -76.6757 19° North  Level Estimated
06:17PM 40.7706 -76.6512 19° North  Level Estimated
06:18PM 40.8242 -76.6268 19° North  Level Estimated
06:19PM 40.8777 -76.6023 19° North  Level Estimated
06:20PM 40.9313 -76.5778 19° North  Level Estimated
06:21PM 40.9848 -76.5532 19° North  Level Estimated
06:22PM 41.0383 -76.5286 19° North  Level Estimated
06:23PM 41.0918 -76.5039 19° North  Level Estimated
06:24PM 41.1453 -76.4792 19° North  Level Estimated
06:25PM 41.1988 -76.4545 19° North  Level Estimated
06:26PM 41.2523 -76.4297 19° North  Level Estimated
06:27PM 41.3058 -76.4049 19° North  Level Estimated
06:28PM 41.3593 -76.3801 19° North  Level Estimated
06:29PM 41.4128 -76.3552 19° North  Level Estimated
06:30PM 41.4662 -76.3303 19° North  Level Estimated
06:31PM 41.5197 -76.3053 19° North  Level Estimated
06:32PM 41.5732 -76.2803 19° North  Level Estimated
06:33PM 41.6266 -76.2552 19° North  Level Estimated
06:34PM 41.6801 -76.2301 19° North  Level Estimated
06:35PM 41.7335 -76.2050 19° North  Level Estimated
06:36PM 41.7869 -76.1798 19° North  Level Estimated
06:37PM 41.8404 -76.1546 19° North  Level Estimated
06:38PM 41.8938 -76.1293 19° North  Level Estimated
06:39PM 41.9472 -76.1040 19° North  Level Estimated
06:40PM 42.0006 -76.0787 19° North  Level Estimated
06:41PM 42.0541 -76.0533 19° North  Level Estimated
06:42PM 42.1075 -76.0278 19° North  Level Estimated
06:43PM 42.1609 -76.0023 19° North  Level Estimated
06:44PM 42.2084 -75.9796 19° North  Level Estimated
06:45PM 42.2084 -75.9796 35° Northeast  Level Estimated
06:46PM 42.2084 -75.9796 35° Northeast  Level Estimated
06:47PM 42.2084 -75.9796 35° Northeast  Level Estimated
06:48PM 42.2084 -75.9796 35° Northeast  Level Estimated
06:49PM 42.2084 -75.9796 35° Northeast  Level Estimated
06:50PM 42.2084 -75.9796 35° Northeast  Level Estimated
06:51PM 42.2084 -75.9796 35° Northeast  Level Estimated
06:52PM 42.2084 -75.9796 35° Northeast  Level Estimated